createdAt,value
2019-03-01T00:01:35.491Z,12.47
2019-03-01T00:04:22.827Z,15.05
2019-03-01T00:07:43.011Z,11.75
2019-03-01T00:10:51.155Z,11.00
2019-03-01T00:14:12.810Z,13.55
2019-03-01T00:17:20.873Z,15.43
2019-03-01T00:20:56.037Z,14.73
2019-03-01T00:23:56.285Z,14.90
2019-03-01T00:26:47.270Z,19.40
2019-03-01T00:29:51.213Z,12.53
2019-03-01T00:32:42.667Z,17.23
2019-03-01T00:35:37.610Z,16.45
2019-03-01T00:38:47.127Z,14.28
2019-03-01T00:41:45.870Z,14.53
2019-03-01T00:44:38.466Z,15.35
2019-03-01T00:47:19.079Z,15.38
2019-03-01T00:49:48.974Z,12.10
2019-03-01T00:52:20.649Z,14.15
2019-03-01T00:54:50.667Z,13.80
2019-03-01T00:57:23.869Z,16.50
2019-03-01T00:59:54.952Z,14.18
2019-03-01T01:02:24.878Z,13.23
2019-03-01T01:04:54.760Z,16.23
2019-03-01T01:07:26.367Z,15.15
2019-03-01T01:09:56.368Z,12.93
2019-03-01T01:12:26.310Z,15.08
2019-03-01T01:14:56.171Z,13.25
2019-03-01T01:17:26.047Z,16.65
2019-03-01T01:19:55.867Z,15.88
2019-03-01T01:22:25.918Z,13.25
2019-03-01T01:24:55.894Z,12.70
2019-03-01T01:27:25.744Z,10.23
2019-03-01T01:29:55.628Z,11.68
2019-03-01T01:32:25.508Z,13.00
2019-03-01T01:34:55.412Z,11.97
2019-03-01T01:37:25.236Z,12.87
2019-03-01T01:39:55.049Z,13.70
2019-03-01T01:42:24.982Z,11.25
2019-03-01T01:44:54.809Z,11.18
2019-03-01T01:47:24.700Z,10.82
2019-03-01T01:49:54.596Z,10.88
2019-03-01T01:52:24.446Z,9.95
2019-03-01T01:54:54.296Z,10.43
2019-03-01T01:57:24.161Z,10.68
2019-03-01T01:59:54.015Z,10.30
2019-03-01T02:02:23.874Z,9.45
2019-03-01T02:04:53.706Z,9.75
2019-03-01T02:07:23.650Z,8.63
2019-03-01T02:09:53.553Z,11.50
2019-03-01T02:12:23.553Z,7.47
2019-03-01T02:14:54.578Z,9.55
2019-03-01T02:17:24.437Z,7.85
2019-03-01T02:19:54.266Z,9.15
2019-03-01T02:22:24.262Z,9.38
2019-03-01T02:24:54.189Z,8.10
2019-03-01T02:27:28.753Z,8.63
2019-03-01T02:29:59.734Z,8.48
2019-03-01T02:32:38.097Z,6.80
2019-03-01T02:35:09.760Z,9.13
2019-03-01T02:37:39.574Z,7.67
2019-03-01T02:40:10.329Z,8.50
2019-03-01T02:42:40.233Z,8.75
2019-03-01T02:45:12.018Z,8.93
2019-03-01T02:47:41.806Z,7.85
2019-03-01T02:50:12.503Z,8.63
2019-03-01T02:52:42.370Z,9.10
2019-03-01T02:55:13.002Z,6.83
2019-03-01T02:57:42.838Z,8.43
2019-03-01T03:00:23.554Z,8.00
2019-03-01T03:02:53.343Z,8.13
2019-03-01T03:05:24.133Z,8.48
2019-03-01T03:07:55.866Z,8.68
2019-03-01T03:10:25.757Z,8.63
2019-03-01T03:13:01.018Z,8.50
2019-03-01T03:15:49.862Z,8.68
2019-03-01T03:18:19.773Z,7.83
2019-03-01T03:20:49.693Z,7.15
2019-03-01T03:23:20.583Z,9.65
2019-03-01T03:25:50.541Z,7.62
2019-03-01T03:28:20.431Z,8.70
2019-03-01T03:30:50.248Z,7.47
2019-03-01T03:33:20.086Z,9.33
2019-03-01T03:35:49.955Z,7.57
2019-03-01T03:38:19.912Z,8.23
2019-03-01T03:40:49.769Z,9.23
2019-03-01T03:43:19.596Z,8.90
2019-03-01T03:45:49.508Z,7.90
2019-03-01T03:48:19.451Z,8.80
2019-03-01T03:50:49.435Z,9.80
2019-03-01T03:53:19.418Z,10.43
2019-03-01T03:55:49.367Z,11.15
2019-03-01T03:58:19.741Z,9.90
2019-03-01T04:00:49.595Z,10.30
2019-03-01T04:03:19.389Z,9.23
2019-03-01T04:05:49.195Z,11.08
2019-03-01T04:08:19.103Z,10.55
2019-03-01T04:10:48.961Z,10.28
2019-03-01T04:13:18.852Z,10.13
2019-03-01T04:15:48.690Z,11.67
2019-03-01T04:18:18.560Z,10.38
2019-03-01T04:20:48.396Z,11.17
2019-03-01T04:23:18.201Z,10.60
2019-03-01T04:25:48.124Z,12.13
2019-03-01T04:28:18.011Z,11.03
2019-03-01T04:30:47.838Z,10.70
2019-03-01T04:33:17.647Z,11.20
2019-03-01T04:35:47.566Z,9.47
2019-03-01T04:38:17.510Z,11.10
2019-03-01T04:40:47.444Z,10.48
2019-03-01T04:43:17.370Z,12.73
2019-03-01T04:45:47.246Z,12.18
2019-03-01T04:48:17.159Z,13.18
2019-03-01T04:50:46.975Z,11.35
2019-03-01T04:53:16.807Z,12.00
2019-03-01T04:55:46.726Z,16.23
2019-03-01T04:58:16.627Z,13.62
2019-03-01T05:00:46.457Z,11.65
2019-03-01T05:03:16.379Z,12.58
2019-03-01T05:05:46.342Z,12.18
2019-03-01T05:08:16.275Z,12.07
2019-03-01T05:10:46.234Z,11.90
2019-03-01T05:13:16.124Z,11.63
2019-03-01T05:15:46.042Z,13.95
2019-03-01T05:18:15.926Z,13.18
2019-03-01T05:20:45.766Z,11.18
2019-03-01T05:23:15.789Z,13.03
2019-03-01T05:25:47.636Z,12.60
2019-03-01T05:28:17.331Z,14.33
2019-03-01T05:30:47.242Z,12.90
2019-03-01T05:33:17.142Z,12.20
2019-03-01T05:35:47.042Z,12.47
2019-03-01T05:38:21.657Z,12.28
2019-03-01T05:40:48.478Z,13.13
2019-03-01T05:43:18.315Z,12.35
2019-03-01T05:45:48.395Z,13.18
2019-03-01T05:48:18.444Z,13.83
2019-03-01T05:50:48.288Z,13.10
2019-03-01T05:53:18.131Z,12.90
2019-03-01T05:55:47.979Z,13.23
2019-03-01T05:58:52.480Z,14.87
2019-03-01T06:01:49.867Z,11.88
2019-03-01T06:04:36.174Z,13.08
2019-03-01T06:07:38.156Z,15.23
2019-03-01T06:10:18.714Z,14.20
2019-03-01T06:13:14.260Z,14.05
2019-03-01T06:16:09.462Z,14.70
2019-03-01T06:19:15.034Z,15.08
2019-03-01T06:22:50.050Z,15.53
2019-03-01T06:25:42.093Z,17.02
2019-03-01T06:29:32.282Z,15.45
2019-03-01T06:32:23.078Z,17.40
2019-03-01T06:35:28.580Z,16.50
2019-03-01T06:39:08.690Z,12.60
2019-03-01T06:41:47.942Z,14.05
2019-03-01T06:44:39.736Z,14.40
2019-03-01T06:47:44.694Z,13.50
2019-03-01T06:50:37.959Z,15.23
2019-03-01T06:53:08.294Z,14.30
2019-03-01T06:55:49.490Z,14.00
2019-03-01T06:58:51.557Z,13.08
2019-03-01T07:01:26.672Z,13.55
2019-03-01T07:04:10.106Z,13.63
2019-03-01T07:06:39.982Z,13.32
2019-03-01T07:09:09.811Z,12.93
2019-03-01T07:11:39.696Z,14.40
2019-03-01T07:14:09.679Z,14.10
2019-03-01T07:16:39.514Z,12.68
2019-03-01T07:19:09.516Z,13.35
2019-03-01T07:21:39.338Z,12.13
2019-03-01T07:24:09.225Z,12.80
2019-03-01T07:26:39.154Z,15.55
2019-03-01T07:29:09.055Z,12.70
2019-03-01T08:02:35.882Z,13.00
2019-03-01T08:09:13.750Z,11.50
2019-03-01T08:19:54.876Z,10.27
2019-03-01T08:22:33.715Z,10.65
2019-03-01T08:26:03.380Z,11.33
2019-03-01T08:29:01.884Z,11.33
2019-03-01T08:32:21.036Z,12.95
2019-03-01T08:35:14.751Z,10.90
2019-03-01T08:55:08.734Z,9.48
2019-03-01T09:39:09.185Z,8.05
2019-03-01T09:42:26.264Z,8.65
2019-03-01T09:51:55.220Z,7.33
2019-03-01T09:59:27.065Z,7.70
2019-03-01T10:03:08.404Z,7.22
2019-03-01T10:13:26.390Z,6.05
2019-03-01T10:31:50.180Z,5.90
2019-03-01T10:39:22.121Z,6.12
2019-03-01T10:45:45.709Z,5.05
2019-03-01T10:49:41.249Z,4.70
2019-03-01T10:53:05.373Z,4.62
2019-03-01T10:56:40.817Z,4.15
2019-03-01T10:59:03.856Z,3.50
2019-03-01T11:09:09.806Z,5.08
2019-03-01T11:24:18.033Z,5.33
2019-03-01T12:02:53.829Z,7.62
2019-03-01T12:04:19.067Z,8.18
2019-03-01T12:14:48.924Z,8.28
2019-03-01T12:17:28.906Z,8.65
2019-03-01T12:20:57.622Z,9.08
2019-03-01T12:23:49.343Z,10.70
2019-03-01T12:26:24.542Z,11.88
2019-03-01T12:28:57.536Z,12.20
2019-03-01T12:31:36.950Z,12.33
2019-03-01T12:35:06.385Z,13.20
2019-03-01T12:41:38.872Z,15.40
2019-03-01T12:47:40.073Z,18.95
2019-03-01T12:50:16.340Z,19.67
2019-03-01T12:53:04.522Z,20.77
2019-03-01T12:56:40.031Z,22.90
2019-03-01T13:03:09.029Z,31.33
2019-03-01T13:28:54.185Z,48.87
2019-03-01T14:04:09.405Z,51.37
2019-03-01T14:06:49.054Z,53.35
2019-03-01T14:09:18.955Z,52.15
2019-03-01T14:11:49.182Z,53.38
2019-03-01T14:14:19.179Z,53.60
2019-03-01T14:16:49.080Z,56.05
2019-03-01T14:19:19.110Z,55.08
2019-03-01T14:21:48.962Z,54.65
2019-03-01T14:24:18.926Z,57.15
2019-03-01T14:26:50.617Z,55.48
2019-03-01T14:29:20.483Z,56.63
2019-03-01T14:31:50.567Z,56.45
2019-03-01T14:34:20.611Z,56.08
2019-03-01T14:36:50.549Z,56.50
2019-03-01T14:39:20.553Z,54.63
2019-03-01T14:41:50.526Z,56.88
2019-03-01T14:44:20.471Z,53.13
2019-03-01T14:46:52.927Z,55.12
2019-03-01T14:49:22.744Z,55.52
2019-03-01T14:51:52.871Z,55.65
2019-03-01T14:54:22.824Z,59.50
2019-03-01T14:56:57.546Z,55.88
2019-03-01T14:59:38.137Z,56.68
2019-03-01T15:02:23.354Z,57.67
2019-03-01T15:04:54.383Z,58.73
2019-03-01T15:07:24.533Z,58.60
2019-03-01T15:09:57.242Z,60.10
2019-03-01T15:12:26.174Z,58.25
2019-03-01T15:14:56.273Z,58.13
2019-03-01T15:17:26.294Z,59.80
2019-03-01T15:19:56.097Z,57.83
2019-03-01T15:22:27.042Z,61.27
2019-03-01T15:24:57.007Z,61.23
2019-03-01T15:39:23.453Z,62.98
2019-03-01T15:48:30.908Z,64.32
2019-03-01T15:51:02.416Z,65.42
2019-03-01T15:53:35.889Z,64.47
2019-03-01T15:56:07.415Z,64.67
2019-03-01T15:58:46.421Z,63.87
2019-03-01T16:01:21.737Z,64.42
2019-03-01T16:04:13.819Z,59.98
2019-03-01T16:06:55.193Z,58.85
2019-03-01T16:09:25.126Z,61.35
2019-03-01T16:11:56.459Z,60.25
2019-03-01T16:14:29.298Z,54.30
2019-03-01T16:16:59.147Z,52.78
2019-03-01T16:19:29.061Z,56.23
2019-03-01T16:21:58.902Z,51.80
2019-03-01T16:24:28.878Z,54.50
2019-03-01T16:26:58.738Z,55.08
2019-03-01T16:29:28.606Z,50.78
2019-03-01T16:31:58.477Z,49.73
2019-03-01T16:34:29.535Z,47.60
2019-03-01T16:36:59.875Z,49.90
2019-03-01T16:39:29.766Z,48.42
2019-03-01T16:41:59.703Z,49.25
2019-03-01T16:44:29.657Z,47.70
2019-03-01T16:46:59.684Z,48.08
2019-03-01T16:49:29.651Z,48.92
2019-03-01T16:52:00.963Z,47.67
2019-03-01T16:54:30.966Z,45.52
2019-03-01T16:57:01.006Z,49.10
2019-03-01T16:59:30.978Z,48.55
2019-03-01T17:02:06.015Z,44.80
2019-03-01T17:04:37.675Z,45.80
2019-03-01T17:07:12.312Z,43.75
2019-03-01T17:10:05.948Z,44.27
2019-03-01T17:12:48.855Z,39.23
2019-03-01T17:15:18.126Z,41.53
2019-03-01T17:17:52.493Z,43.23
2019-03-01T17:20:22.389Z,40.37
2019-03-01T17:22:52.380Z,39.13
2019-03-01T17:25:23.461Z,40.12
2019-03-01T17:27:53.928Z,37.73
2019-03-01T17:30:23.785Z,37.75
2019-03-01T17:32:53.729Z,38.45
2019-03-01T17:35:23.625Z,36.70
2019-03-01T17:37:53.460Z,37.08
2019-03-01T17:40:23.285Z,34.73
2019-03-01T17:42:56.265Z,33.75
2019-03-01T17:45:24.714Z,33.85
2019-03-01T17:47:55.426Z,33.98
2019-03-01T17:50:25.580Z,36.80
2019-03-01T17:52:55.471Z,39.42
2019-03-01T17:55:25.327Z,36.23
2019-03-01T17:57:55.346Z,35.10
2019-03-01T18:00:31.289Z,33.10
2019-03-01T18:03:01.270Z,34.03
2019-03-01T18:05:32.181Z,34.65
2019-03-01T18:08:03.775Z,33.40
2019-03-01T18:10:33.700Z,32.23
2019-03-01T18:13:04.556Z,32.25
2019-03-01T18:15:34.422Z,32.95
2019-03-01T18:18:04.433Z,30.63
2019-03-01T18:20:37.661Z,29.55
2019-03-01T18:23:05.884Z,26.25
2019-03-01T18:25:35.778Z,26.93
2019-03-01T18:28:05.759Z,24.23
2019-03-01T18:30:35.614Z,23.18
2019-03-01T18:33:05.454Z,24.43
2019-03-01T18:35:35.334Z,23.12
2019-03-01T18:38:05.230Z,23.70
2019-03-01T18:40:35.207Z,22.62
2019-03-01T18:43:05.029Z,23.55
2019-03-01T18:45:34.916Z,22.93
2019-03-01T18:48:04.960Z,21.97
2019-03-01T18:54:18.729Z,19.77
2019-03-01T18:56:48.578Z,20.60
2019-03-01T18:59:21.637Z,19.55
2019-03-01T19:01:50.093Z,19.65
2019-03-01T19:04:29.370Z,19.05
2019-03-01T19:06:52.575Z,19.27
2019-03-01T19:09:22.663Z,18.35
2019-03-01T19:11:52.507Z,17.73
2019-03-01T19:14:22.433Z,18.20
2019-03-01T19:16:52.330Z,17.90
2019-03-01T19:19:24.441Z,17.30
2019-03-01T19:21:53.753Z,16.10
2019-03-01T19:24:23.663Z,17.27
2019-03-01T19:26:54.230Z,15.43
2019-03-01T19:29:24.087Z,15.78
2019-03-01T19:31:54.095Z,15.68
2019-03-01T19:34:24.205Z,17.23
2019-03-01T19:36:54.175Z,16.05
2019-03-01T19:39:24.166Z,18.00
2019-03-01T19:41:54.444Z,19.07
2019-03-01T19:44:28.795Z,23.40
2019-03-01T19:46:57.237Z,23.73
2019-03-01T19:49:27.234Z,24.98
2019-03-01T19:51:57.209Z,25.40
2019-03-01T19:54:28.240Z,27.98
2019-03-01T19:57:01.571Z,28.50
2019-03-01T19:59:29.875Z,31.12
2019-03-01T20:01:59.858Z,31.97
2019-03-01T20:04:29.851Z,35.40
2019-03-01T20:07:01.359Z,35.43
2019-03-01T20:09:31.479Z,33.25
2019-03-01T20:12:02.667Z,32.85
2019-03-01T20:14:33.866Z,30.12
2019-03-01T20:17:04.450Z,29.25
2019-03-01T20:19:34.282Z,29.10
2019-03-01T20:22:04.212Z,27.22
2019-03-01T20:24:34.138Z,29.10
2019-03-01T20:27:04.203Z,26.55
2019-03-01T20:29:34.142Z,24.57
2019-03-01T20:32:07.168Z,23.90
2019-03-01T20:34:37.964Z,24.57
2019-03-01T20:37:07.322Z,22.90
2019-03-01T20:39:37.243Z,22.80
2019-03-01T20:42:07.186Z,22.60
2019-03-01T20:44:37.026Z,21.75
2019-03-01T20:47:07.051Z,20.60
2019-03-01T20:49:39.469Z,20.68
2019-03-01T20:52:13.013Z,21.23
2019-03-01T20:54:42.958Z,20.37
2019-03-01T20:57:12.851Z,20.85
2019-03-01T20:59:42.794Z,21.15
2019-03-01T21:02:15.759Z,22.62
2019-03-01T21:04:53.360Z,22.15
2019-03-01T21:07:18.104Z,22.93
2019-03-01T21:09:48.051Z,23.20
2019-03-01T21:12:17.934Z,23.12
2019-03-01T21:14:47.896Z,22.93
2019-03-01T21:17:20.399Z,23.40
2019-03-01T21:19:49.556Z,23.45
2019-03-01T21:22:19.406Z,24.15
2019-03-01T21:24:49.274Z,26.02
2019-03-01T21:27:19.194Z,24.77
2019-03-01T21:29:49.066Z,25.80
2019-03-01T21:32:19.113Z,25.50
2019-03-01T21:34:49.266Z,25.95
2019-03-01T21:37:19.268Z,27.00
2019-03-01T21:39:49.207Z,27.07
2019-03-01T21:42:20.297Z,26.30
2019-03-01T21:44:50.813Z,26.82
2019-03-01T21:47:20.663Z,27.22
2019-03-01T21:49:50.519Z,27.37
2019-03-01T21:52:20.451Z,28.73
2019-03-01T21:54:51.949Z,27.52
2019-03-01T21:57:22.188Z,27.25
2019-03-01T21:59:52.504Z,28.02
2019-03-01T22:02:25.865Z,28.95
2019-03-01T22:04:55.846Z,29.35
2019-03-01T22:07:25.748Z,28.57
2019-03-01T22:09:56.792Z,27.42
2019-03-01T22:12:27.731Z,28.42
2019-03-01T22:14:59.674Z,29.48
2019-03-01T22:17:29.553Z,27.70
2019-03-01T22:19:59.498Z,28.32
2019-03-01T22:22:29.340Z,28.50
2019-03-01T22:25:02.284Z,28.45
2019-03-01T22:27:31.289Z,27.93
2019-03-01T22:30:01.277Z,28.25
2019-03-01T22:32:33.709Z,28.73
2019-03-01T22:35:08.462Z,28.38
2019-03-01T22:37:35.663Z,28.38
2019-03-01T22:40:07.074Z,27.60
2019-03-01T22:42:37.430Z,27.55
2019-03-01T22:45:10.329Z,27.40
2019-03-01T22:47:41.792Z,27.87
2019-03-01T22:50:13.745Z,27.67
2019-03-01T22:52:46.771Z,26.67
2019-03-01T22:55:17.608Z,25.80
2019-03-01T22:57:47.674Z,28.12
2019-03-01T23:01:08.579Z,27.60
2019-03-01T23:03:38.894Z,27.95
2019-03-01T23:06:11.765Z,27.25
2019-03-01T23:08:40.568Z,27.65
2019-03-01T23:11:11.740Z,27.35
2019-03-01T23:13:41.744Z,28.23
2019-03-01T23:16:11.617Z,26.20
2019-03-01T23:18:41.455Z,26.17
2019-03-01T23:21:11.427Z,27.40
2019-03-01T23:23:41.282Z,26.57
2019-03-01T23:26:12.202Z,27.03
2019-03-01T23:28:43.715Z,27.45
2019-03-01T23:31:13.738Z,28.55
2019-03-01T23:33:43.663Z,28.12
2019-03-01T23:36:13.614Z,29.20
2019-03-01T23:38:46.573Z,28.20
2019-03-01T23:41:15.156Z,28.80
2019-03-01T23:43:46.249Z,30.77
2019-03-01T23:46:16.139Z,31.10
2019-03-01T23:48:48.884Z,30.85
2019-03-01T23:51:17.716Z,29.72
2019-03-01T23:53:47.639Z,30.35
2019-03-01T23:56:17.564Z,29.83
2019-03-01T23:58:47.970Z,29.42
